Time;durP1;ratioP1;P1;durP2;ratioP2;P2;SDS_P1;SDS_P2;PMS_P1;PMS_P2;Temp;Humidity;BMP_temperature;BMP_pressure;BME280_temperature;BME280_humidity;BME280_pressure;Samples;Min_cycle;Max_cycle;Signal;HPM_P1;HPM_P2
2021/04/30 00:00:40;;;;;;;6.30;4.22;;;22.90;46.30;;;;;;5113231;28;20047;-41
2021/04/30 00:03:07;;;;;;;6.32;4.40;;;22.90;46.30;;;;;;5113248;28;20081;-41
2021/04/30 00:05:34;;;;;;;5.90;4.40;;;22.80;46.30;;;;;;5114053;28;20124;-40
2021/04/30 00:08:00;;;;;;;5.47;4.40;;;22.90;46.30;;;;;;5112011;28;20078;-39
2021/04/30 00:10:27;;;;;;;5.72;4.07;;;22.80;46.30;;;;;;5103822;28;20394;-40
2021/04/30 00:12:55;;;;;;;5.65;4.32;;;22.80;46.20;;;;;;5112591;28;20063;-39
2021/04/30 00:15:22;;;;;;;5.22;3.90;;;22.80;46.20;;;;;;5113996;28;20403;-39
2021/04/30 00:17:49;;;;;;;4.90;3.70;;;22.90;46.30;;;;;;5114462;28;20066;-39
2021/04/30 00:20:16;;;;;;;6.78;3.88;;;22.90;46.30;;;;;;5113797;28;20498;-40
2021/04/30 00:22:44;;;;;;;5.50;4.38;;;22.80;46.20;;;;;;5113655;28;20411;-40
2021/04/30 00:25:11;;;;;;;6.25;4.15;;;22.80;46.30;;;;;;5113336;28;20097;-40
2021/04/30 00:27:38;;;;;;;5.18;4.15;;;22.80;46.20;;;;;;5113385;28;20108;-39
2021/04/30 00:30:06;;;;;;;5.68;4.40;;;22.90;46.30;;;;;;5112905;28;20512;-39
2021/04/30 00:32:33;;;;;;;5.70;4.03;;;22.80;46.30;;;;;;5113692;28;20089;-40
2021/04/30 00:35:02;;;;;;;6.50;3.92;;;22.80;46.30;;;;;;5104479;28;20057;-41
2021/04/30 00:37:28;;;;;;;6.07;4.20;;;22.90;46.30;;;;;;5112615;28;20077;-39
2021/04/30 00:39:55;;;;;;;5.28;4.13;;;22.80;46.30;;;;;;5112685;28;20414;-40
2021/04/30 00:42:22;;;;;;;6.22;4.45;;;22.80;46.20;;;;;;5112812;28;20058;-40
2021/04/30 00:44:48;;;;;;;6.10;4.15;;;22.80;46.20;;;;;;5113657;27;20032;-40
2021/04/30 00:47:34;;;;;;;5.88;4.25;;;22.80;46.20;;;;;;5113303;28;20051;-40
2021/04/30 00:50:06;;;;;;;5.10;3.92;;;22.80;46.20;;;;;;5112492;28;20044;-40
2021/04/30 00:52:33;;;;;;;5.32;3.95;;;22.90;46.30;;;;;;5112909;28;20051;-40
2021/04/30 00:55:00;;;;;;;5.35;4.07;;;22.80;46.20;;;;;;5101600;28;20048;-39
2021/04/30 00:57:28;;;;;;;5.97;4.18;;;22.80;46.20;;;;;;5102072;28;20092;-39
2021/04/30 00:59:57;;;;;;;6.22;4.25;;;22.80;46.20;;;;;;5112608;27;20081;-40
2021/04/30 01:02:24;;;;;;;4.95;4.18;;;22.80;46.30;;;;;;5113122;28;20047;-41
2021/04/30 01:04:51;;;;;;;4.82;3.80;;;22.80;46.30;;;;;;5112569;28;20184;-39
2021/04/30 01:07:18;;;;;;;5.05;3.83;;;22.80;46.20;;;;;;5083918;28;20044;-41
2021/04/30 01:09:45;;;;;;;5.82;4.13;;;22.80;46.20;;;;;;5110997;28;20051;-43
2021/04/30 01:12:12;;;;;;;5.90;3.95;;;22.80;46.20;;;;;;5102212;28;20101;-40
2021/04/30 01:14:38;;;;;;;5.78;4.00;;;22.80;46.20;;;;;;5112711;28;20081;-41
2021/04/30 01:17:05;;;;;;;6.53;4.15;;;22.80;46.20;;;;;;5102092;28;20506;-40
2021/04/30 01:19:32;;;;;;;6.93;4.30;;;22.80;46.20;;;;;;5112517;28;20083;-40
2021/04/30 01:22:00;;;;;;;5.82;4.15;;;22.80;46.30;;;;;;5111869;28;20062;-40
2021/04/30 01:24:27;;;;;;;6.32;4.05;;;22.80;46.20;;;;;;5112345;28;20039;-41
2021/04/30 01:26:55;;;;;;;5.13;3.95;;;22.80;46.20;;;;;;5111565;28;20047;-40
2021/04/30 01:29:22;;;;;;;3.63;2.97;;;22.80;46.20;;;;;;5112671;28;20047;-40
2021/04/30 01:31:49;;;;;;;6.32;4.28;;;22.80;46.30;;;;;;5113176;28;20050;-40
2021/04/30 01:34:16;;;;;;;6.07;3.90;;;22.80;46.20;;;;;;5111902;28;20079;-41
2021/04/30 01:36:43;;;;;;;5.50;3.88;;;22.80;46.20;;;;;;5111517;28;20078;-40
2021/04/30 01:39:13;;;;;;;5.57;3.95;;;22.80;46.20;;;;;;5111501;28;20052;-42
2021/04/30 01:41:42;;;;;;;4.72;3.60;;;22.80;46.20;;;;;;5112217;28;20123;-42
2021/04/30 01:44:13;;;;;;;6.28;3.70;;;22.80;46.20;;;;;;5112103;28;20052;-42
2021/04/30 01:46:41;;;;;;;6.05;3.83;;;22.80;46.20;;;;;;5112375;28;20418;-41
2021/04/30 01:49:09;;;;;;;5.32;3.70;;;22.80;46.20;;;;;;5112079;28;20449;-39
2021/04/30 01:51:36;;;;;;;4.13;3.63;;;22.80;46.20;;;;;;5111011;28;20051;-41
2021/04/30 01:54:04;;;;;;;4.93;3.70;;;22.80;46.20;;;;;;5111543;28;20040;-43
2021/04/30 01:56:33;;;;;;;5.38;3.80;;;22.80;46.20;;;;;;5100874;28;20070;-41
2021/04/30 01:58:59;;;;;;;5.43;3.85;;;22.80;46.20;;;;;;5112258;27;20047;-40
2021/04/30 02:01:26;;;;;;;4.45;3.90;;;22.80;46.20;;;;;;5101102;28;20043;-40
2021/04/30 02:03:59;;;;;;;5.13;3.58;;;22.80;46.80;;;;;;5111354;28;20051;-42
2021/04/30 02:06:26;;;;;;;6.20;4.07;;;22.80;46.30;;;;;;5110765;28;20491;-40
2021/04/30 02:08:56;;;;;;;4.95;4.00;;;22.80;46.20;;;;;;5111064;28;20043;-43
2021/04/30 02:11:23;;;;;;;4.93;3.65;;;22.80;46.30;;;;;;5110983;28;20632;-40
2021/04/30 02:13:49;;;;;;;7.20;4.00;;;22.80;46.20;;;;;;5111728;28;20867;-41
2021/04/30 02:16:16;;;;;;;4.85;3.63;;;22.80;46.20;;;;;;5111525;28;20062;-42
2021/04/30 02:18:43;;;;;;;5.20;4.00;;;22.80;46.20;;;;;;5110968;28;20499;-42
2021/04/30 02:21:10;;;;;;;4.85;3.53;;;22.80;46.20;;;;;;5110116;27;20047;-42
2021/04/30 02:23:36;;;;;;;4.90;3.60;;;22.80;46.20;;;;;;5101214;28;20043;-41
2021/04/30 02:26:03;;;;;;;5.75;3.85;;;22.80;46.20;;;;;;5111011;28;20698;-40
2021/04/30 02:28:30;;;;;;;5.25;3.72;;;22.80;46.30;;;;;;5111386;28;20052;-39
2021/04/30 02:30:56;;;;;;;5.40;3.65;;;22.80;46.20;;;;;;5111306;28;20047;-42
2021/04/30 02:33:23;;;;;;;4.85;3.58;;;22.80;46.30;;;;;;5111174;28;20081;-43
2021/04/30 02:35:50;;;;;;;5.68;3.72;;;22.80;46.30;;;;;;5109765;28;20044;-40
2021/04/30 02:38:18;;;;;;;5.30;3.65;;;22.80;46.20;;;;;;5110773;28;20055;-40
2021/04/30 02:40:47;;;;;;;4.40;3.55;;;22.80;46.20;;;;;;5110862;28;20164;-40
2021/04/30 02:43:18;;;;;;;7.88;3.75;;;22.80;46.20;;;;;;5110878;28;20503;-39
2021/04/30 02:45:50;;;;;;;4.65;3.55;;;22.80;46.20;;;;;;5111048;28;20052;-40
2021/04/30 02:48:30;;;;;;;6.18;3.65;;;22.80;46.20;;;;;;5110199;28;20128;-39
2021/04/30 02:50:59;;;;;;;4.70;3.42;;;22.80;46.20;;;;;;5110389;28;20100;-40
2021/04/30 02:53:25;;;;;;;4.72;3.60;;;22.80;46.30;;;;;;5100917;28;20043;-39
2021/04/30 02:55:52;;;;;;;4.47;3.60;;;22.80;46.30;;;;;;5110501;28;20052;-39
2021/04/30 02:58:19;;;;;;;4.60;3.60;;;22.80;46.20;;;;;;5111382;28;20077;-39
2021/04/30 03:00:46;;;;;;;4.43;3.40;;;22.80;46.20;;;;;;5111476;28;20048;-40
2021/04/30 03:03:13;;;;;;;4.22;3.40;;;22.80;46.30;;;;;;5110930;28;20052;-40
2021/04/30 03:05:41;;;;;;;4.95;3.38;;;22.80;46.20;;;;;;5109833;28;20139;-41
2021/04/30 03:08:08;;;;;;;4.63;3.50;;;22.80;46.20;;;;;;5109857;28;20055;-39
2021/04/30 03:10:35;;;;;;;5.85;3.58;;;22.80;46.20;;;;;;5109960;28;20050;-41
2021/04/30 03:13:02;;;;;;;4.80;3.50;;;22.80;46.30;;;;;;5110815;28;20056;-41
2021/04/30 03:15:29;;;;;;;4.43;3.85;;;22.80;46.20;;;;;;5110685;28;20044;-39
2021/04/30 03:17:55;;;;;;;4.20;3.25;;;22.80;46.20;;;;;;5109873;28;20044;-40
2021/04/30 03:20:22;;;;;;;4.72;3.42;;;22.80;46.20;;;;;;5110063;28;20075;-41
2021/04/30 03:22:49;;;;;;;5.70;3.97;;;22.80;46.20;;;;;;5110260;28;20051;-39
2021/04/30 03:25:18;;;;;;;5.13;3.75;;;22.80;46.20;;;;;;5110139;28;20427;-41
2021/04/30 03:27:45;;;;;;;4.18;3.40;;;22.80;46.20;;;;;;5110430;28;20051;-40
2021/04/30 03:30:13;;;;;;;4.43;3.28;;;22.80;46.20;;;;;;5110149;28;20075;-39
2021/04/30 03:32:40;;;;;;;3.92;3.25;;;22.80;46.80;;;;;;5109428;28;20132;-39
2021/04/30 03:35:08;;;;;;;3.85;3.05;;;22.80;46.20;;;;;;5113489;28;20049;-40
2021/04/30 03:37:35;;;;;;;4.28;3.47;;;22.70;46.10;;;;;;5114524;28;20879;-42
2021/04/30 03:40:03;;;;;;;4.80;3.58;;;22.70;46.10;;;;;;5114346;28;20074;-39
2021/04/30 03:42:29;;;;;;;3.60;3.25;;;22.70;46.20;;;;;;5114550;28;20047;-39
2021/04/30 03:44:56;;;;;;;5.68;3.50;;;22.80;46.20;;;;;;5113478;28;20058;-39
2021/04/30 03:47:23;;;;;;;4.07;3.05;;;22.70;46.20;;;;;;5114040;28;20047;-39
2021/04/30 03:49:50;;;;;;;4.47;3.33;;;22.80;46.20;;;;;;5102849;28;20071;-39
2021/04/30 03:52:16;;;;;;;4.65;3.33;;;22.80;46.20;;;;;;5114789;27;20106;-41
2021/04/30 03:54:43;;;;;;;5.18;3.42;;;22.80;46.20;;;;;;5114537;28;20113;-40
2021/04/30 03:57:10;;;;;;;3.92;3.15;;;22.70;46.10;;;;;;5114228;28;20056;-39
2021/04/30 03:59:37;;;;;;;3.92;3.28;;;22.70;46.10;;;;;;5113196;27;20047;-41
2021/04/30 04:02:04;;;;;;;4.55;3.50;;;22.70;46.10;;;;;;5114476;27;20479;-39
2021/04/30 04:04:31;;;;;;;3.78;3.10;;;22.70;46.20;;;;;;5112954;28;20071;-39
2021/04/30 04:06:58;;;;;;;5.18;3.58;;;22.80;46.20;;;;;;5113829;28;20043;-39
2021/04/30 04:09:24;;;;;;;4.32;2.95;;;22.70;46.10;;;;;;5113767;28;20058;-39
2021/04/30 04:11:51;;;;;;;4.88;3.05;;;22.70;46.10;;;;;;5113301;28;20081;-39
2021/04/30 04:14:18;;;;;;;4.13;3.25;;;22.70;46.10;;;;;;5112633;28;20055;-40
2021/04/30 04:16:44;;;;;;;4.53;3.10;;;22.80;46.30;;;;;;5113499;28;20051;-39
2021/04/30 04:19:11;;;;;;;4.50;3.30;;;22.70;46.10;;;;;;5112835;28;20062;-42
2021/04/30 04:21:38;;;;;;;4.10;2.97;;;22.70;46.10;;;;;;5113968;28;20067;-39
2021/04/30 04:24:05;;;;;;;4.25;3.20;;;22.70;46.10;;;;;;5113740;28;20051;-39
2021/04/30 04:26:31;;;;;;;4.18;3.20;;;22.70;46.10;;;;;;5103563;28;20043;-41
2021/04/30 04:28:58;;;;;;;4.65;3.40;;;22.70;46.10;;;;;;5113023;28;20058;-39
2021/04/30 04:31:24;;;;;;;3.60;3.08;;;22.80;46.20;;;;;;5112608;28;20048;-40
2021/04/30 04:33:51;;;;;;;4.35;3.25;;;22.70;46.10;;;;;;5113232;28;20039;-39
2021/04/30 04:36:18;;;;;;;5.22;3.60;;;22.80;46.20;;;;;;5103737;28;20054;-39
2021/04/30 04:38:44;;;;;;;3.42;2.67;;;22.80;46.20;;;;;;5114166;28;20052;-39
2021/04/30 04:41:11;;;;;;;3.70;3.40;;;22.70;46.10;;;;;;5112399;28;20499;-40
2021/04/30 04:43:38;;;;;;;4.97;3.50;;;22.70;46.10;;;;;;5113063;27;20495;-39
2021/04/30 04:46:04;;;;;;;4.93;3.55;;;22.70;46.10;;;;;;5102581;28;20052;-39
2021/04/30 04:48:31;;;;;;;3.95;3.10;;;22.70;46.10;;;;;;5112571;28;20071;-40
2021/04/30 04:50:58;;;;;;;4.15;3.00;;;22.70;46.10;;;;;;5113322;28;20089;-40
2021/04/30 04:53:25;;;;;;;3.72;2.85;;;22.70;46.10;;;;;;5113391;28;20056;-42
2021/04/30 04:56:11;;;;;;;4.10;3.00;;;22.70;46.10;;;;;;5112942;28;20055;-40
2021/04/30 04:58:38;;;;;;;4.63;3.33;;;22.70;46.10;;;;;;5112288;27;20055;-40
2021/04/30 05:01:06;;;;;;;4.20;3.28;;;22.70;46.10;;;;;;5112050;28;20047;-39
2021/04/30 05:03:33;;;;;;;4.10;3.13;;;22.70;46.10;;;;;;5112618;28;20407;-42
2021/04/30 05:06:00;;;;;;;4.03;2.90;;;22.70;46.10;;;;;;5112367;28;20491;-41
2021/04/30 05:08:27;;;;;;;4.47;3.08;;;22.70;46.10;;;;;;5102909;28;20101;-41
2021/04/30 05:10:53;;;;;;;4.13;2.92;;;22.70;46.10;;;;;;5112514;28;20092;-40
2021/04/30 05:13:20;;;;;;;3.72;2.90;;;22.70;46.10;;;;;;5101193;28;20052;-44
2021/04/30 05:15:54;;;;;;;4.07;3.15;;;22.70;46.10;;;;;;5112176;28;20055;-39
2021/04/30 05:18:21;;;;;;;5.25;3.25;;;22.70;46.10;;;;;;5111034;28;20058;-39
2021/04/30 05:20:47;;;;;;;3.72;2.90;;;22.70;46.10;;;;;;5102953;28;20048;-43
2021/04/30 05:23:14;;;;;;;3.80;2.80;;;22.70;46.10;;;;;;5112897;28;20062;-39
2021/04/30 05:25:41;;;;;;;3.90;2.88;;;22.70;46.10;;;;;;5112250;28;20112;-40
2021/04/30 05:28:08;;;;;;;4.25;3.10;;;22.70;46.10;;;;;;5111671;28;20051;-43
2021/04/30 05:30:35;;;;;;;4.07;2.92;;;22.70;46.10;;;;;;5111645;28;20040;-39
2021/04/30 05:33:01;;;;;;;4.70;2.92;;;22.80;46.20;;;;;;5111395;27;20081;-41
2021/04/30 05:35:29;;;;;;;3.50;2.72;;;22.70;46.10;;;;;;5112443;28;20052;-40
2021/04/30 05:37:57;;;;;;;4.10;2.88;;;22.80;46.20;;;;;;5111913;28;20096;-41
2021/04/30 05:40:23;;;;;;;4.10;3.15;;;22.70;46.10;;;;;;5111407;28;20047;-41
2021/04/30 05:42:50;;;;;;;3.38;2.63;;;22.70;46.10;;;;;;5110902;27;20047;-41
2021/04/30 05:45:18;;;;;;;4.70;3.20;;;22.80;46.20;;;;;;5111661;28;20039;-39
2021/04/30 05:47:45;;;;;;;4.97;3.25;;;22.80;46.10;;;;;;5111269;28;20071;-39
2021/04/30 05:50:14;;;;;;;3.45;2.80;;;22.80;46.10;;;;;;5112383;28;20047;-39
2021/04/30 05:52:42;;;;;;;3.85;3.05;;;22.70;46.00;;;;;;5111960;28;20048;-40
2021/04/30 05:55:13;;;;;;;3.88;3.10;;;22.80;46.10;;;;;;5101574;28;20051;-40
2021/04/30 05:57:40;;;;;;;4.05;2.53;;;22.70;46.00;;;;;;5110649;28;20513;-40
2021/04/30 06:00:12;;;;;;;3.58;2.65;;;22.80;46.10;;;;;;5111620;28;20190;-40
2021/04/30 06:02:39;;;;;;;3.40;2.70;;;22.80;46.10;;;;;;5111802;28;20096;-42
2021/04/30 06:05:07;;;;;;;4.15;3.03;;;22.80;46.10;;;;;;5111395;28;20043;-40
2021/04/30 06:07:34;;;;;;;3.20;2.42;;;22.80;46.10;;;;;;5111591;28;20100;-41
2021/04/30 06:10:03;;;;;;;4.18;3.13;;;22.80;46.10;;;;;;5110573;28;20050;-42
2021/04/30 06:12:31;;;;;;;3.47;2.88;;;22.80;46.10;;;;;;5110529;28;20051;-44
2021/04/30 06:14:57;;;;;;;3.45;3.00;;;22.80;46.10;;;;;;5110701;28;20113;-43
2021/04/30 06:17:24;;;;;;;3.40;2.92;;;22.80;46.10;;;;;;5083391;28;20066;-46
2021/04/30 06:19:51;;;;;;;3.75;2.72;;;22.80;46.10;;;;;;5111731;28;20126;-43
2021/04/30 06:22:18;;;;;;;3.10;2.63;;;22.80;46.10;;;;;;5111500;28;20062;-41
2021/04/30 06:24:45;;;;;;;3.33;2.75;;;22.80;46.70;;;;;;5110581;28;20043;-44
2021/04/30 06:27:11;;;;;;;3.50;2.65;;;22.80;46.10;;;;;;5109903;28;20514;-40
2021/04/30 06:29:38;;;;;;;3.72;2.80;;;22.80;46.10;;;;;;5110894;28;20411;-45
2021/04/30 06:32:05;;;;;;;3.80;2.88;;;22.80;46.10;;;;;;5111376;28;20050;-41
2021/04/30 06:34:34;;;;;;;4.90;3.08;;;22.80;46.00;;;;;;5111092;28;20146;-41
2021/04/30 06:37:00;;;;;;;3.58;2.78;;;22.80;46.10;;;;;;5110064;28;20054;-41
2021/04/30 06:39:27;;;;;;;3.95;3.00;;;22.80;46.00;;;;;;5110740;28;20104;-44
2021/04/30 06:41:56;;;;;;;2.65;2.40;;;22.80;46.00;;;;;;5110763;28;20051;-46
2021/04/30 06:44:23;;;;;;;3.80;2.60;;;22.80;46.10;;;;;;5109620;28;20047;-46
2021/04/30 06:46:50;;;;;;;4.00;3.00;;;22.80;46.00;;;;;;5111603;27;20175;-42
2021/04/30 06:49:17;;;;;;;3.17;2.70;;;22.80;46.00;;;;;;5110357;28;20054;-41
2021/04/30 06:51:44;;;;;;;3.20;2.50;;;22.80;46.00;;;;;;5110807;28;20044;-41
2021/04/30 06:54:11;;;;;;;3.58;2.83;;;22.80;46.00;;;;;;5109961;28;20504;-39
2021/04/30 06:56:37;;;;;;;4.00;2.70;;;22.80;46.10;;;;;;5110363;28;20051;-41
2021/04/30 06:59:04;;;;;;;3.50;2.78;;;22.80;46.00;;;;;;5110632;28;20471;-42
2021/04/30 07:01:31;;;;;;;3.10;2.70;;;22.80;46.00;;;;;;5110683;28;20055;-40
2021/04/30 07:03:58;;;;;;;3.63;2.60;;;22.80;46.00;;;;;;5110666;28;20131;-41
2021/04/30 07:06:24;;;;;;;3.42;2.80;;;22.80;46.00;;;;;;5111388;28;20050;-42
2021/04/30 07:08:52;;;;;;;3.70;2.47;;;22.80;46.00;;;;;;5110598;28;20043;-40
2021/04/30 07:11:18;;;;;;;4.63;2.63;;;22.80;46.00;;;;;;5115177;27;20510;-43
2021/04/30 07:13:45;;;;;;;3.60;2.72;;;22.80;46.00;;;;;;5114088;28;20104;-43
2021/04/30 07:16:12;;;;;;;3.63;2.50;;;22.80;46.00;;;;;;5114879;28;20064;-45
2021/04/30 07:18:39;;;;;;;3.35;2.72;;;22.80;46.00;;;;;;5115606;28;20403;-41
2021/04/30 07:21:05;;;;;;;3.42;2.63;;;22.80;46.00;;;;;;5114281;28;20093;-42
2021/04/30 07:23:33;;;;;;;3.28;2.65;;;22.80;46.00;;;;;;5114549;28;20043;-43
2021/04/30 07:26:04;;;;;;;3.80;2.50;;;22.80;46.00;;;;;;5114137;28;20101;-40
2021/04/30 07:28:30;;;;;;;3.15;2.50;;;22.80;46.00;;;;;;5113789;28;20494;-41
2021/04/30 07:30:58;;;;;;;3.67;2.72;;;22.80;45.90;;;;;;5115152;28;20047;-41
2021/04/30 07:33:25;;;;;;;3.42;2.50;;;22.80;46.00;;;;;;5114734;28;20471;-43
2021/04/30 07:35:52;;;;;;;3.45;2.63;;;22.80;45.90;;;;;;5113528;28;20450;-40
2021/04/30 07:38:18;;;;;;;3.58;2.72;;;22.80;46.00;;;;;;5113985;28;20048;-40
2021/04/30 07:40:45;;;;;;;3.90;2.47;;;22.80;45.90;;;;;;5112997;28;20048;-41
2021/04/30 07:43:16;;;;;;;3.20;2.53;;;22.80;46.00;;;;;;5114865;28;20050;-44
2021/04/30 07:45:44;;;;;;;4.30;2.75;;;22.80;46.00;;;;;;5114174;28;20047;-46
2021/04/30 07:48:12;;;;;;;3.08;2.50;;;22.80;46.00;;;;;;5113654;27;20043;-42
2021/04/30 07:50:40;;;;;;;4.38;2.63;;;22.80;46.00;;;;;;5114451;28;20043;-44
2021/04/30 07:53:07;;;;;;;2.67;2.30;;;22.80;46.00;;;;;;5113251;28;20040;-43
2021/04/30 07:55:34;;;;;;;3.63;2.70;;;22.80;46.00;;;;;;5103816;28;20055;-48
2021/04/30 07:58:01;;;;;;;3.33;2.72;;;22.80;46.00;;;;;;5113883;28;20051;-40
2021/04/30 08:00:28;;;;;;;2.60;2.20;;;22.80;46.00;;;;;;5103355;28;20056;-42
2021/04/30 08:02:56;;;;;;;3.20;2.38;;;22.80;46.00;;;;;;5113006;28;20055;-45
2021/04/30 08:05:26;;;;;;;2.90;2.20;;;22.80;46.00;;;;;;5113055;28;20138;-44
2021/04/30 08:07:52;;;;;;;2.90;2.33;;;22.80;46.00;;;;;;5113188;27;20039;-40
2021/04/30 08:10:19;;;;;;;3.22;2.55;;;22.80;46.00;;;;;;5113686;28;20073;-43
2021/04/30 08:12:47;;;;;;;2.85;2.40;;;22.80;46.00;;;;;;5113455;28;20055;-40
2021/04/30 08:15:16;;;;;;;4.43;2.47;;;22.80;46.00;;;;;;5114134;28;20058;-44
2021/04/30 08:17:43;;;;;;;4.13;2.65;;;22.80;46.00;;;;;;5102668;28;20499;-41
2021/04/30 08:20:11;;;;;;;2.92;2.28;;;22.80;46.00;;;;;;5112891;28;20105;-41
2021/04/30 08:22:37;;;;;;;2.88;1.98;;;22.80;46.00;;;;;;5113182;28;20047;-41
2021/04/30 08:25:05;;;;;;;3.25;2.20;;;22.80;46.00;;;;;;5113745;28;20040;-40
2021/04/30 08:27:32;;;;;;;2.47;2.13;;;22.80;46.10;;;;;;5113269;28;20093;-42
2021/04/30 08:29:59;;;;;;;3.03;2.17;;;22.80;46.00;;;;;;5113778;27;20491;-40
2021/04/30 08:32:26;;;;;;;3.63;2.38;;;22.80;46.00;;;;;;5112575;28;20051;-41
2021/04/30 08:34:53;;;;;;;3.70;2.60;;;22.80;46.00;;;;;;5113434;28;20055;-40
2021/04/30 08:37:20;;;;;;;3.15;2.33;;;22.80;46.60;;;;;;5113121;28;20564;-41
2021/04/30 08:39:46;;;;;;;2.80;2.33;;;22.80;46.00;;;;;;5113329;28;20522;-40
2021/04/30 08:42:17;;;;;;;3.47;2.25;;;22.80;46.00;;;;;;5103713;28;20071;-40
2021/04/30 08:44:44;;;;;;;2.85;2.30;;;22.90;46.00;;;;;;5113278;28;20422;-40
2021/04/30 08:47:19;;;;;;;3.00;2.13;;;22.80;45.90;;;;;;5112266;28;20053;-42
2021/04/30 08:49:47;;;;;;;4.25;2.38;;;22.90;46.00;;;;;;5112474;28;20061;-40
2021/04/30 08:52:18;;;;;;;3.70;2.50;;;22.90;46.10;;;;;;5112756;28;20039;-40
2021/04/30 08:54:48;;;;;;;3.53;2.40;;;22.90;46.00;;;;;;5113145;28;20035;-40
2021/04/30 08:57:23;;;;;;;2.90;2.22;;;22.90;46.00;;;;;;5113597;27;20537;-40
2021/04/30 08:59:55;;;;;;;2.78;2.30;;;22.90;46.00;;;;;;5113231;28;20100;-40
2021/04/30 09:02:42;;;;;;;2.90;2.30;;;22.90;46.00;;;;;;5103029;28;20104;-41
2021/04/30 09:05:11;;;;;;;3.75;2.22;;;22.90;46.00;;;;;;5112649;27;20047;-40
2021/04/30 09:07:43;;;;;;;3.20;2.28;;;22.90;46.00;;;;;;5111507;28;20043;-40
2021/04/30 09:10:12;;;;;;;2.75;2.25;;;22.90;46.00;;;;;;5111610;28;20798;-40
2021/04/30 09:12:48;;;;;;;3.38;2.35;;;22.90;46.00;;;;;;5112326;27;20047;-40
2021/04/30 09:15:21;;;;;;;3.40;2.17;;;22.90;46.00;;;;;;5112300;28;20055;-41
2021/04/30 09:17:48;;;;;;;2.50;2.10;;;22.90;46.00;;;;;;5112679;28;20055;-40
2021/04/30 09:20:15;;;;;;;2.92;2.20;;;22.90;46.00;;;;;;5112505;28;20135;-40
2021/04/30 09:22:44;;;;;;;2.58;2.00;;;22.90;46.00;;;;;;5111459;28;20130;-40
2021/04/30 09:25:13;;;;;;;2.40;1.92;;;22.90;46.10;;;;;;5111366;28;20048;-41
2021/04/30 09:27:48;;;;;;;3.00;2.42;;;22.90;46.00;;;;;;5112160;28;20077;-40
2021/04/30 09:30:16;;;;;;;3.58;2.00;;;22.90;46.10;;;;;;5112223;28;20122;-39
2021/04/30 09:33:02;;;;;;;3.20;2.40;;;22.90;46.00;;;;;;5111143;28;20126;-39
2021/04/30 09:35:55;;;;;;;3.00;2.35;;;22.90;46.10;;;;;;5112318;28;20071;-39
2021/04/30 09:38:24;;;;;;;3.30;2.33;;;22.90;46.10;;;;;;5112232;28;20059;-41
2021/04/30 09:41:06;;;;;;;2.78;2.35;;;22.90;46.10;;;;;;5111398;28;20142;-41
2021/04/30 09:43:46;;;;;;;3.28;2.30;;;22.90;46.10;;;;;;5111135;28;20164;-40
2021/04/30 09:46:31;;;;;;;2.45;1.90;;;22.90;46.10;;;;;;5111051;28;20453;-39
2021/04/30 09:49:15;;;;;;;2.47;2.05;;;22.90;46.10;;;;;;5111321;28;20062;-42
2021/04/30 09:51:44;;;;;;;2.80;2.10;;;22.90;46.10;;;;;;5111041;28;20059;-42
2021/04/30 09:54:22;;;;;;;2.97;2.30;;;22.90;46.10;;;;;;5111188;28;20402;-41
2021/04/30 09:57:02;;;;;;;2.72;2.15;;;22.90;46.10;;;;;;5111930;28;20046;-41
2021/04/30 09:59:33;;;;;;;3.30;2.08;;;22.90;46.10;;;;;;5112085;28;20048;-43
2021/04/30 10:02:09;;;;;;;3.10;1.90;;;22.90;46.10;;;;;;5112595;28;20134;-39
2021/04/30 10:04:38;;;;;;;2.70;2.20;;;22.90;46.10;;;;;;5111210;28;20070;-40
2021/04/30 10:07:09;;;;;;;2.75;2.10;;;22.90;46.20;;;;;;5110175;28;20039;-40
2021/04/30 10:09:38;;;;;;;2.65;1.83;;;22.90;46.10;;;;;;5110287;28;20040;-40
2021/04/30 10:12:23;;;;;;;3.50;1.83;;;22.90;46.20;;;;;;5111228;28;20132;-39
2021/04/30 10:14:51;;;;;;;2.08;1.80;;;23.00;46.30;;;;;;5111749;27;20553;-41
2021/04/30 10:17:18;;;;;;;2.67;2.00;;;22.90;46.20;;;;;;5111240;28;20101;-41
2021/04/30 10:19:47;;;;;;;2.33;1.83;;;22.90;46.20;;;;;;5111855;28;20094;-40
2021/04/30 10:22:25;;;;;;;4.32;2.20;;;22.90;46.20;;;;;;5111239;28;20075;-39
2021/04/30 10:25:15;;;;;;;2.58;2.25;;;22.90;46.20;;;;;;5110923;27;20515;-40
2021/04/30 10:27:45;;;;;;;5.65;2.30;;;23.00;46.30;;;;;;5110624;28;20047;-42
2021/04/30 10:30:32;;;;;;;4.03;2.30;;;22.90;46.30;;;;;;5109682;28;20487;-41
2021/04/30 10:33:07;;;;;;;4.53;2.00;;;22.90;46.20;;;;;;5110816;28;20601;-41
2021/04/30 10:35:58;;;;;;;4.05;1.90;;;23.00;46.30;;;;;;5110989;28;20047;-40
2021/04/30 10:38:30;;;;;;;4.03;2.25;;;22.90;46.20;;;;;;5111042;28;20047;-43
2021/04/30 10:41:00;;;;;;;3.40;2.15;;;22.90;46.30;;;;;;5111380;27;20047;-42
2021/04/30 10:43:27;;;;;;;6.93;2.30;;;22.90;46.30;;;;;;5110991;28;20108;-43
2021/04/30 10:46:21;;;;;;;10.45;2.40;;;22.90;46.30;;;;;;5110567;28;20048;-42
2021/04/30 10:49:42;;;;;;;16.20;2.65;;;22.90;46.30;;;;;;5103491;28;20044;-39
2021/04/30 10:52:05;;;;;;;10.32;2.55;;;22.90;46.30;;;;;;5109119;28;20044;-39
2021/04/30 10:54:37;;;;;;;8.20;2.85;;;23.00;46.40;;;;;;5111289;28;20455;-43
2021/04/30 10:57:08;;;;;;;8.88;2.78;;;22.90;46.30;;;;;;5100117;28;20392;-40
2021/04/30 10:59:35;;;;;;;7.05;2.45;;;23.00;46.30;;;;;;5109806;28;20126;-40
2021/04/30 11:02:18;;;;;;;16.15;3.30;;;23.00;46.30;;;;;;5110881;28;20047;-39
2021/04/30 11:05:03;;;;;;;13.77;3.53;;;22.90;46.90;;;;;;5111280;28;20055;-39
2021/04/30 11:07:31;;;;;;;16.50;3.42;;;22.90;46.30;;;;;;5110221;28;20047;-39
2021/04/30 11:09:57;;;;;;;10.63;3.03;;;22.90;46.30;;;;;;5109972;28;20059;-40
2021/04/30 11:12:26;;;;;;;24.48;4.55;;;23.00;46.30;;;;;;5110532;28;20387;-39
2021/04/30 11:15:03;;;;;;;19.75;3.92;;;23.00;46.30;;;;;;5110723;28;20062;-40
2021/04/30 11:17:50;;;;;;;17.38;3.47;;;22.90;46.30;;;;;;5110701;28;20075;-39
2021/04/30 11:20:19;;;;;;;19.52;3.90;;;22.90;46.30;;;;;;5109708;28;20044;-39
2021/04/30 11:23:22;;;;;;;17.45;3.67;;;22.90;46.30;;;;;;5102572;28;20050;-39
2021/04/30 11:25:57;;;;;;;14.40;3.72;;;22.90;46.30;;;;;;5110325;28;20032;-39
2021/04/30 11:28:24;;;;;;;12.30;3.58;;;22.90;46.30;;;;;;5110322;28;20047;-39
2021/04/30 11:31:11;;;;;;;15.05;3.70;;;23.00;46.40;;;;;;5109990;28;20096;-40
2021/04/30 11:33:39;;;;;;;15.80;3.72;;;22.90;46.30;;;;;;5110367;28;20059;-39
2021/04/30 11:36:08;;;;;;;17.88;3.70;;;22.90;46.30;;;;;;5111576;28;20058;-40
2021/04/30 11:38:36;;;;;;;22.23;3.92;;;23.00;46.40;;;;;;5125926;28;20070;-41
2021/04/30 11:41:04;;;;;;;17.23;3.47;;;22.90;46.30;;;;;;5130010;28;20410;-41
2021/04/30 11:43:31;;;;;;;22.85;3.78;;;22.90;46.30;;;;;;5119323;28;20396;-42
2021/04/30 11:45:58;;;;;;;16.77;3.33;;;22.90;46.30;;;;;;5122694;28;20047;-41
2021/04/30 11:48:27;;;;;;;21.08;3.90;;;22.90;46.30;;;;;;5128332;28;20051;-40
2021/04/30 11:51:01;;;;;;;21.33;4.00;;;22.90;46.30;;;;;;5122180;28;20044;-40
2021/04/30 11:53:28;;;;;;;19.50;3.57;;;22.90;46.30;;;;;;5113410;28;20047;-41
2021/04/30 11:55:57;;;;;;;13.60;3.28;;;23.00;46.40;;;;;;5116441;27;20052;-40
2021/04/30 11:58:45;;;;;;;18.80;3.70;;;22.90;46.30;;;;;;5118809;27;20415;-40
2021/04/30 12:01:15;;;;;;;12.98;3.55;;;22.90;46.30;;;;;;5125203;27;20436;-40
2021/04/30 12:03:52;;;;;;;22.23;3.65;;;22.90;46.30;;;;;;5133907;27;20051;-40
2021/04/30 12:06:22;;;;;;;24.50;4.15;;;22.90;46.30;;;;;;5125459;27;20046;-40
2021/04/30 12:08:56;;;;;;;10.38;2.90;;;22.90;46.30;;;;;;5116263;27;20046;-40
2021/04/30 12:11:26;;;;;;;14.48;3.40;;;22.90;46.30;;;;;;5117789;27;20097;-40
2021/04/30 12:13:55;;;;;;;14.35;3.63;;;23.00;46.30;;;;;;5116489;27;20050;-40
2021/04/30 12:16:27;;;;;;;13.85;3.13;;;22.90;46.30;;;;;;5119796;27;20054;-43
2021/04/30 12:18:55;;;;;;;15.02;4.00;;;22.90;46.30;;;;;;5116897;27;20043;-40
2021/04/30 12:21:30;;;;;;;12.73;4.18;;;22.90;46.20;;;;;;5116752;27;20279;-42
2021/04/30 12:23:58;;;;;;;14.88;3.85;;;22.90;46.20;;;;;;5121797;27;20049;-40
2021/04/30 12:26:30;;;;;;;11.38;3.08;;;23.00;46.30;;;;;;5128395;27;20048;-41
2021/04/30 12:28:58;;;;;;;10.88;3.15;;;23.00;46.30;;;;;;5096780;28;20040;-40
2021/04/30 12:31:26;;;;;;;14.18;3.20;;;23.00;46.30;;;;;;5116523;27;20352;-40
2021/04/30 12:33:55;;;;;;;11.82;3.30;;;22.90;46.20;;;;;;5098118;28;20118;-40
2021/04/30 12:36:24;;;;;;;15.60;3.58;;;22.90;46.20;;;;;;5114723;28;20059;-41
2021/04/30 12:38:54;;;;;;;9.77;3.42;;;22.90;46.20;;;;;;5116369;27;20055;-42
2021/04/30 12:41:25;;;;;;;18.33;3.42;;;23.00;46.20;;;;;;5116345;27;20495;-40
2021/04/30 12:43:57;;;;;;;15.40;3.50;;;23.00;46.20;;;;;;5114803;28;20040;-45
2021/04/30 12:46:32;;;;;;;12.45;3.13;;;22.90;46.20;;;;;;5115921;27;20039;-39
2021/04/30 12:49:10;;;;;;;14.25;3.50;;;23.00;46.20;;;;;;5097942;28;20046;-42
2021/04/30 12:51:41;;;;;;;15.80;3.20;;;23.00;46.20;;;;;;5098460;28;20039;-40
2021/04/30 12:54:08;;;;;;;10.93;3.15;;;22.90;46.10;;;;;;5096702;28;20043;-41
2021/04/30 12:56:39;;;;;;;15.38;3.20;;;22.90;46.10;;;;;;5133289;27;20043;-40